sensor_id;sensor_type;location;lat;lon;timestamp;temperature;humidity
4376;DHT22;2202;50.866;12.750;2023-03-04T00:02:20;-1.20;98.10
4376;DHT22;2202;50.866;12.750;2023-03-04T00:04:47;-1.20;98.20
4376;DHT22;2202;50.866;12.750;2023-03-04T00:07:14;-1.20;98.30
4376;DHT22;2202;50.866;12.750;2023-03-04T00:09:44;-1.20;98.30
4376;DHT22;2202;50.866;12.750;2023-03-04T00:12:11;-1.20;98.40
4376;DHT22;2202;50.866;12.750;2023-03-04T00:14:37;-1.20;98.40
4376;DHT22;2202;50.866;12.750;2023-03-04T00:17:04;-1.10;98.20
4376;DHT22;2202;50.866;12.750;2023-03-04T00:19:33;-1.20;98.20
4376;DHT22;2202;50.866;12.750;2023-03-04T00:22:00;-1.10;98.30
4376;DHT22;2202;50.866;12.750;2023-03-04T00:24:28;-1.10;98.10
4376;DHT22;2202;50.866;12.750;2023-03-04T00:26:55;-1.10;98.00
4376;DHT22;2202;50.866;12.750;2023-03-04T00:29:22;-1.10;98.10
4376;DHT22;2202;50.866;12.750;2023-03-04T00:31:49;-1.00;98.20
4376;DHT22;2202;50.866;12.750;2023-03-04T00:34:16;-1.00;98.10
4376;DHT22;2202;50.866;12.750;2023-03-04T00:36:44;-0.90;98.00
4376;DHT22;2202;50.866;12.750;2023-03-04T00:39:11;-0.90;97.80
4376;DHT22;2202;50.866;12.750;2023-03-04T00:41:38;-0.90;97.70
4376;DHT22;2202;50.866;12.750;2023-03-04T00:44:06;-0.90;97.70
4376;DHT22;2202;50.866;12.750;2023-03-04T00:46:38;-0.90;97.60
4376;DHT22;2202;50.866;12.750;2023-03-04T00:49:05;-1.00;97.60
4376;DHT22;2202;50.866;12.750;2023-03-04T00:51:32;-0.90;97.80
4376;DHT22;2202;50.866;12.750;2023-03-04T00:54:00;-1.00;97.70
4376;DHT22;2202;50.866;12.750;2023-03-04T00:56:27;-1.00;97.90
4376;DHT22;2202;50.866;12.750;2023-03-04T00:58:55;-0.90;97.90
4376;DHT22;2202;50.866;12.750;2023-03-04T01:01:21;-0.90;97.80
4376;DHT22;2202;50.866;12.750;2023-03-04T01:03:48;-0.90;97.60
4376;DHT22;2202;50.866;12.750;2023-03-04T01:06:15;-0.90;97.40
4376;DHT22;2202;50.866;12.750;2023-03-04T01:08:42;-0.90;97.40
4376;DHT22;2202;50.866;12.750;2023-03-04T01:11:10;-0.90;97.60
4376;DHT22;2202;50.866;12.750;2023-03-04T01:13:37;-0.80;97.50
4376;DHT22;2202;50.866;12.750;2023-03-04T01:16:05;-0.80;97.40
4376;DHT22;2202;50.866;12.750;2023-03-04T01:18:33;-0.90;97.40
4376;DHT22;2202;50.866;12.750;2023-03-04T01:21:00;-0.90;97.30
4376;DHT22;2202;50.866;12.750;2023-03-04T01:23:26;-0.90;97.30
4376;DHT22;2202;50.866;12.750;2023-03-04T01:25:53;-0.90;97.30
4376;DHT22;2202;50.866;12.750;2023-03-04T01:28:21;-1.00;97.30
4376;DHT22;2202;50.866;12.750;2023-03-04T01:30:49;-0.90;97.50
4376;DHT22;2202;50.866;12.750;2023-03-04T01:33:15;-1.00;97.50
4376;DHT22;2202;50.866;12.750;2023-03-04T01:35:42;-0.90;97.60
4376;DHT22;2202;50.866;12.750;2023-03-04T01:38:09;-1.00;97.60
4376;DHT22;2202;50.866;12.750;2023-03-04T01:40:37;-1.00;97.70
4376;DHT22;2202;50.866;12.750;2023-03-04T01:43:04;-0.90;97.60
4376;DHT22;2202;50.866;12.750;2023-03-04T01:45:33;-0.90;97.60
4376;DHT22;2202;50.866;12.750;2023-03-04T01:48:01;-0.90;97.60
4376;DHT22;2202;50.866;12.750;2023-03-04T01:50:31;-0.90;97.60
4376;DHT22;2202;50.866;12.750;2023-03-04T01:52:58;-0.90;97.60
4376;DHT22;2202;50.866;12.750;2023-03-04T01:55:25;-0.90;97.50
4376;DHT22;2202;50.866;12.750;2023-03-04T01:57:52;-0.90;97.80
4376;DHT22;2202;50.866;12.750;2023-03-04T02:00:23;-1.00;97.80
4376;DHT22;2202;50.866;12.750;2023-03-04T02:02:54;-1.00;98.10
4376;DHT22;2202;50.866;12.750;2023-03-04T02:05:22;-1.00;98.20
4376;DHT22;2202;50.866;12.750;2023-03-04T02:07:50;-1.00;98.30
4376;DHT22;2202;50.866;12.750;2023-03-04T02:10:18;-1.00;98.40
4376;DHT22;2202;50.866;12.750;2023-03-04T02:12:45;-1.00;98.40
4376;DHT22;2202;50.866;12.750;2023-03-04T02:15:12;-1.00;98.40
4376;DHT22;2202;50.866;12.750;2023-03-04T02:17:39;-1.00;98.60
4376;DHT22;2202;50.866;12.750;2023-03-04T02:20:16;-1.00;98.80
4376;DHT22;2202;50.866;12.750;2023-03-04T02:22:48;-1.00;98.80
4376;DHT22;2202;50.866;12.750;2023-03-04T02:25:22;-1.10;98.90
4376;DHT22;2202;50.866;12.750;2023-03-04T02:27:51;-1.00;99.20
4376;DHT22;2202;50.866;12.750;2023-03-04T02:30:20;-1.00;99.20
4376;DHT22;2202;50.866;12.750;2023-03-04T02:32:50;-1.00;99.10
4376;DHT22;2202;50.866;12.750;2023-03-04T02:35:18;-1.00;99.20
4376;DHT22;2202;50.866;12.750;2023-03-04T02:37:45;-1.00;99.20
4376;DHT22;2202;50.866;12.750;2023-03-04T02:40:15;-1.00;99.30
4376;DHT22;2202;50.866;12.750;2023-03-04T02:42:43;-0.90;99.40
4376;DHT22;2202;50.866;12.750;2023-03-04T02:45:31;-1.00;99.20
4376;DHT22;2202;50.866;12.750;2023-03-04T02:48:00;-1.00;99.50
4376;DHT22;2202;50.866;12.750;2023-03-04T02:50:29;-1.00;99.30
4376;DHT22;2202;50.866;12.750;2023-03-04T02:52:58;-1.00;99.30
4376;DHT22;2202;50.866;12.750;2023-03-04T02:55:25;-1.00;98.90
4376;DHT22;2202;50.866;12.750;2023-03-04T02:57:53;-0.90;98.90
4376;DHT22;2202;50.866;12.750;2023-03-04T03:00:20;-0.90;98.90
4376;DHT22;2202;50.866;12.750;2023-03-04T03:02:48;-0.90;99.00
4376;DHT22;2202;50.866;12.750;2023-03-04T03:05:15;-0.90;98.70
4376;DHT22;2202;50.866;12.750;2023-03-04T03:07:42;-0.80;99.00
4376;DHT22;2202;50.866;12.750;2023-03-04T03:10:10;-0.80;98.70
4376;DHT22;2202;50.866;12.750;2023-03-04T03:12:37;-0.80;98.50
4376;DHT22;2202;50.866;12.750;2023-03-04T03:15:05;-0.80;98.60
4376;DHT22;2202;50.866;12.750;2023-03-04T03:17:32;-0.90;98.60
4376;DHT22;2202;50.866;12.750;2023-03-04T03:20:00;-0.80;98.80
4376;DHT22;2202;50.866;12.750;2023-03-04T03:22:27;-0.80;98.80
4376;DHT22;2202;50.866;12.750;2023-03-04T03:24:54;-0.80;98.80
4376;DHT22;2202;50.866;12.750;2023-03-04T03:27:20;-0.80;98.70
4376;DHT22;2202;50.866;12.750;2023-03-04T03:29:47;-0.80;98.60
4376;DHT22;2202;50.866;12.750;2023-03-04T03:32:14;-0.80;98.30
4376;DHT22;2202;50.866;12.750;2023-03-04T03:34:41;-0.80;98.60
4376;DHT22;2202;50.866;12.750;2023-03-04T03:37:09;-0.70;98.30
4376;DHT22;2202;50.866;12.750;2023-03-04T03:39:36;-0.70;98.30
4376;DHT22;2202;50.866;12.750;2023-03-04T03:42:03;-0.60;98.10
4376;DHT22;2202;50.866;12.750;2023-03-04T03:44:30;-0.70;97.90
4376;DHT22;2202;50.866;12.750;2023-03-04T03:46:57;-0.70;98.00
4376;DHT22;2202;50.866;12.750;2023-03-04T03:49:24;-0.60;98.00
4376;DHT22;2202;50.866;12.750;2023-03-04T03:51:51;-0.60;97.80
4376;DHT22;2202;50.866;12.750;2023-03-04T03:54:19;-0.60;97.90
4376;DHT22;2202;50.866;12.750;2023-03-04T03:56:46;-0.70;97.60
4376;DHT22;2202;50.866;12.750;2023-03-04T03:59:13;-0.70;97.80
4376;DHT22;2202;50.866;12.750;2023-03-04T04:01:40;-0.70;97.80
4376;DHT22;2202;50.866;12.750;2023-03-04T04:04:07;-0.70;97.70
4376;DHT22;2202;50.866;12.750;2023-03-04T04:06:34;-0.70;97.90
4376;DHT22;2202;50.866;12.750;2023-03-04T04:09:01;-0.70;98.00
4376;DHT22;2202;50.866;12.750;2023-03-04T04:11:29;-0.60;97.80
4376;DHT22;2202;50.866;12.750;2023-03-04T04:13:56;-0.60;97.70
4376;DHT22;2202;50.866;12.750;2023-03-04T04:16:23;-0.70;97.70
4376;DHT22;2202;50.866;12.750;2023-03-04T04:18:50;-0.60;97.70
4376;DHT22;2202;50.866;12.750;2023-03-04T04:21:17;-0.60;97.60
4376;DHT22;2202;50.866;12.750;2023-03-04T04:23:44;-0.60;97.60
4376;DHT22;2202;50.866;12.750;2023-03-04T04:26:10;-0.50;97.50
4376;DHT22;2202;50.866;12.750;2023-03-04T04:28:39;-0.60;97.30
4376;DHT22;2202;50.866;12.750;2023-03-04T04:31:06;-0.50;97.60
4376;DHT22;2202;50.866;12.750;2023-03-04T04:33:34;-0.50;97.20
4376;DHT22;2202;50.866;12.750;2023-03-04T04:36:01;-0.50;97.20
4376;DHT22;2202;50.866;12.750;2023-03-04T04:38:29;-0.50;97.30
4376;DHT22;2202;50.866;12.750;2023-03-04T04:40:56;-0.50;97.20
4376;DHT22;2202;50.866;12.750;2023-03-04T04:43:24;-0.50;97.10
4376;DHT22;2202;50.866;12.750;2023-03-04T04:45:52;-0.50;97.20
4376;DHT22;2202;50.866;12.750;2023-03-04T04:48:19;-0.50;97.20
4376;DHT22;2202;50.866;12.750;2023-03-04T04:50:46;-0.40;97.30
4376;DHT22;2202;50.866;12.750;2023-03-04T04:53:19;-0.40;97.10
4376;DHT22;2202;50.866;12.750;2023-03-04T04:55:46;-0.50;97.00
4376;DHT22;2202;50.866;12.750;2023-03-04T04:58:12;-0.40;97.20
4376;DHT22;2202;50.866;12.750;2023-03-04T05:00:39;-0.30;97.10
4376;DHT22;2202;50.866;12.750;2023-03-04T05:03:07;-0.30;96.90
4376;DHT22;2202;50.866;12.750;2023-03-04T05:05:34;-0.30;96.80
4376;DHT22;2202;50.866;12.750;2023-03-04T05:08:01;-0.40;96.70
4376;DHT22;2202;50.866;12.750;2023-03-04T05:10:28;-0.40;97.00
4376;DHT22;2202;50.866;12.750;2023-03-04T05:12:55;-0.40;96.90
4376;DHT22;2202;50.866;12.750;2023-03-04T05:15:22;-0.40;97.10
4376;DHT22;2202;50.866;12.750;2023-03-04T05:17:49;-0.30;97.00
4376;DHT22;2202;50.866;12.750;2023-03-04T05:20:17;-0.30;97.00
4376;DHT22;2202;50.866;12.750;2023-03-04T05:22:44;-0.30;96.80
4376;DHT22;2202;50.866;12.750;2023-03-04T05:25:11;-0.30;96.50
4376;DHT22;2202;50.866;12.750;2023-03-04T05:27:38;-0.20;96.80
4376;DHT22;2202;50.866;12.750;2023-03-04T05:30:05;-0.20;96.50
4376;DHT22;2202;50.866;12.750;2023-03-04T05:32:32;-0.20;96.40
4376;DHT22;2202;50.866;12.750;2023-03-04T05:34:59;-0.30;96.70
4376;DHT22;2202;50.866;12.750;2023-03-04T05:37:28;-0.20;96.90
4376;DHT22;2202;50.866;12.750;2023-03-04T05:39:54;-0.20;96.90
4376;DHT22;2202;50.866;12.750;2023-03-04T05:42:21;-0.20;96.90
4376;DHT22;2202;50.866;12.750;2023-03-04T05:44:48;-0.10;96.80
4376;DHT22;2202;50.866;12.750;2023-03-04T05:47:15;-0.10;96.50
4376;DHT22;2202;50.866;12.750;2023-03-04T05:49:42;-0.10;96.20
4376;DHT22;2202;50.866;12.750;2023-03-04T05:52:09;0.00;96.30
4376;DHT22;2202;50.866;12.750;2023-03-04T05:54:37;0.00;96.10
4376;DHT22;2202;50.866;12.750;2023-03-04T05:57:04;0.00;95.80
4376;DHT22;2202;50.866;12.750;2023-03-04T05:59:31;-0.10;96.10
4376;DHT22;2202;50.866;12.750;2023-03-04T06:01:58;0.00;96.10
4376;DHT22;2202;50.866;12.750;2023-03-04T06:04:25;0.00;96.00
4376;DHT22;2202;50.866;12.750;2023-03-04T06:06:52;0.00;96.10
4376;DHT22;2202;50.866;12.750;2023-03-04T06:09:19;0.00;96.20
4376;DHT22;2202;50.866;12.750;2023-03-04T06:11:47;0.00;96.10
4376;DHT22;2202;50.866;12.750;2023-03-04T06:14:14;0.00;96.10
4376;DHT22;2202;50.866;12.750;2023-03-04T06:16:41;0.00;96.30
4376;DHT22;2202;50.866;12.750;2023-03-04T06:19:08;0.00;96.50
4376;DHT22;2202;50.866;12.750;2023-03-04T06:21:35;0.00;96.40
4376;DHT22;2202;50.866;12.750;2023-03-04T06:24:02;0.00;96.50
4376;DHT22;2202;50.866;12.750;2023-03-04T06:26:29;-0.10;96.50
4376;DHT22;2202;50.866;12.750;2023-03-04T06:28:57;0.00;96.60
4376;DHT22;2202;50.866;12.750;2023-03-04T06:31:24;0.00;96.50
4376;DHT22;2202;50.866;12.750;2023-03-04T06:33:51;0.00;96.50
4376;DHT22;2202;50.866;12.750;2023-03-04T06:36:17;0.00;96.30
4376;DHT22;2202;50.866;12.750;2023-03-04T06:38:44;0.00;96.30
4376;DHT22;2202;50.866;12.750;2023-03-04T06:41:12;0.00;96.30
4376;DHT22;2202;50.866;12.750;2023-03-04T06:43:39;0.00;96.20
4376;DHT22;2202;50.866;12.750;2023-03-04T06:46:08;0.10;96.30
4376;DHT22;2202;50.866;12.750;2023-03-04T06:48:36;0.10;96.20
4376;DHT22;2202;50.866;12.750;2023-03-04T06:51:06;0.10;95.90
4376;DHT22;2202;50.866;12.750;2023-03-04T06:53:34;0.10;96.20
4376;DHT22;2202;50.866;12.750;2023-03-04T06:56:01;0.10;96.20
4376;DHT22;2202;50.866;12.750;2023-03-04T06:58:27;0.10;96.20
4376;DHT22;2202;50.866;12.750;2023-03-04T07:00:54;0.20;96.30
4376;DHT22;2202;50.866;12.750;2023-03-04T07:03:23;0.20;96.30
4376;DHT22;2202;50.866;12.750;2023-03-04T07:05:49;0.20;96.00
4376;DHT22;2202;50.866;12.750;2023-03-04T07:08:16;0.20;96.00
4376;DHT22;2202;50.866;12.750;2023-03-04T07:10:43;0.30;95.90
4376;DHT22;2202;50.866;12.750;2023-03-04T07:13:10;0.30;95.80
4376;DHT22;2202;50.866;12.750;2023-03-04T07:15:37;0.30;95.80
4376;DHT22;2202;50.866;12.750;2023-03-04T07:18:04;0.30;95.90
4376;DHT22;2202;50.866;12.750;2023-03-04T07:20:32;0.30;95.90
4376;DHT22;2202;50.866;12.750;2023-03-04T07:22:59;0.30;95.90
4376;DHT22;2202;50.866;12.750;2023-03-04T07:25:26;0.20;95.80
4376;DHT22;2202;50.866;12.750;2023-03-04T07:27:53;0.20;96.20
4376;DHT22;2202;50.866;12.750;2023-03-04T07:30:20;0.30;96.00
4376;DHT22;2202;50.866;12.750;2023-03-04T07:32:47;0.40;95.80
4376;DHT22;2202;50.866;12.750;2023-03-04T07:35:14;0.30;95.60
4376;DHT22;2202;50.866;12.750;2023-03-04T07:37:42;0.30;95.80
4376;DHT22;2202;50.866;12.750;2023-03-04T07:40:10;0.40;95.80
4376;DHT22;2202;50.866;12.750;2023-03-04T07:42:37;0.40;95.40
4376;DHT22;2202;50.866;12.750;2023-03-04T07:45:05;0.50;95.60
4376;DHT22;2202;50.866;12.750;2023-03-04T07:47:32;0.40;95.30
4376;DHT22;2202;50.866;12.750;2023-03-04T07:49:59;0.50;95.40
4376;DHT22;2202;50.866;12.750;2023-03-04T07:52:26;0.50;95.40
4376;DHT22;2202;50.866;12.750;2023-03-04T07:54:54;0.60;95.20
4376;DHT22;2202;50.866;12.750;2023-03-04T07:57:21;0.60;95.00
4376;DHT22;2202;50.866;12.750;2023-03-04T07:59:48;0.60;94.70
4376;DHT22;2202;50.866;12.750;2023-03-04T08:02:15;0.60;95.00
4376;DHT22;2202;50.866;12.750;2023-03-04T08:04:41;0.60;94.60
4376;DHT22;2202;50.866;12.750;2023-03-04T08:07:08;0.60;94.80
4376;DHT22;2202;50.866;12.750;2023-03-04T08:09:35;0.60;94.70
4376;DHT22;2202;50.866;12.750;2023-03-04T08:12:04;0.50;94.80
4376;DHT22;2202;50.866;12.750;2023-03-04T08:14:31;0.60;95.00
4376;DHT22;2202;50.866;12.750;2023-03-04T08:16:58;0.60;94.40
4376;DHT22;2202;50.866;12.750;2023-03-04T08:19:25;0.60;94.40
4376;DHT22;2202;50.866;12.750;2023-03-04T08:21:52;0.60;94.60
4376;DHT22;2202;50.866;12.750;2023-03-04T08:24:19;0.80;95.00
4376;DHT22;2202;50.866;12.750;2023-03-04T08:26:47;0.80;94.30
4376;DHT22;2202;50.866;12.750;2023-03-04T08:29:19;0.80;94.50
4376;DHT22;2202;50.866;12.750;2023-03-04T08:31:46;0.90;94.50
4376;DHT22;2202;50.866;12.750;2023-03-04T08:34:13;0.90;94.40
4376;DHT22;2202;50.866;12.750;2023-03-04T08:36:41;0.90;94.50
4376;DHT22;2202;50.866;12.750;2023-03-04T08:39:10;1.00;94.70
4376;DHT22;2202;50.866;12.750;2023-03-04T08:41:37;1.00;94.00
4376;DHT22;2202;50.866;12.750;2023-03-04T08:44:04;1.00;93.90
4376;DHT22;2202;50.866;12.750;2023-03-04T08:46:34;1.10;93.90
4376;DHT22;2202;50.866;12.750;2023-03-04T08:49:01;1.00;93.70
4376;DHT22;2202;50.866;12.750;2023-03-04T08:51:28;1.00;93.90
4376;DHT22;2202;50.866;12.750;2023-03-04T08:53:55;1.20;94.10
4376;DHT22;2202;50.866;12.750;2023-03-04T08:56:21;1.20;93.80
4376;DHT22;2202;50.866;12.750;2023-03-04T08:58:48;1.20;93.50
4376;DHT22;2202;50.866;12.750;2023-03-04T09:01:15;1.20;93.40
4376;DHT22;2202;50.866;12.750;2023-03-04T09:03:44;1.40;93.70
4376;DHT22;2202;50.866;12.750;2023-03-04T09:06:13;1.40;93.40
4376;DHT22;2202;50.866;12.750;2023-03-04T09:08:40;1.40;93.70
4376;DHT22;2202;50.866;12.750;2023-03-04T09:11:07;1.50;93.60
4376;DHT22;2202;50.866;12.750;2023-03-04T09:13:35;1.50;93.80
4376;DHT22;2202;50.866;12.750;2023-03-04T09:16:07;1.60;93.60
4376;DHT22;2202;50.866;12.750;2023-03-04T09:18:34;1.60;93.70
4376;DHT22;2202;50.866;12.750;2023-03-04T09:21:02;1.70;93.30
4376;DHT22;2202;50.866;12.750;2023-03-04T09:23:29;1.60;93.10
4376;DHT22;2202;50.866;12.750;2023-03-04T09:25:56;1.60;93.70
4376;DHT22;2202;50.866;12.750;2023-03-04T09:28:23;1.60;94.40
4376;DHT22;2202;50.866;12.750;2023-03-04T09:30:50;1.80;94.40
4376;DHT22;2202;50.866;12.750;2023-03-04T09:33:17;1.90;94.20
4376;DHT22;2202;50.866;12.750;2023-03-04T09:35:44;1.90;93.60
4376;DHT22;2202;50.866;12.750;2023-03-04T09:38:14;2.00;93.60
4376;DHT22;2202;50.866;12.750;2023-03-04T09:40:43;2.10;93.50
4376;DHT22;2202;50.866;12.750;2023-03-04T09:43:16;2.10;93.30
4376;DHT22;2202;50.866;12.750;2023-03-04T09:45:48;2.00;93.10
4376;DHT22;2202;50.866;12.750;2023-03-04T09:48:20;2.10;93.50
4376;DHT22;2202;50.866;12.750;2023-03-04T09:50:58;2.20;93.40
4376;DHT22;2202;50.866;12.750;2023-03-04T09:53:34;2.10;93.20
4376;DHT22;2202;50.866;12.750;2023-03-04T09:56:05;2.20;93.30
4376;DHT22;2202;50.866;12.750;2023-03-04T09:58:49;2.20;93.30
4376;DHT22;2202;50.866;12.750;2023-03-04T10:01:21;2.20;93.50
4376;DHT22;2202;50.866;12.750;2023-03-04T10:03:53;2.20;92.60
4376;DHT22;2202;50.866;12.750;2023-03-04T10:06:22;2.10;92.90
4376;DHT22;2202;50.866;12.750;2023-03-04T10:08:53;2.10;92.80
4376;DHT22;2202;50.866;12.750;2023-03-04T10:11:24;2.10;93.30
4376;DHT22;2202;50.866;12.750;2023-03-04T10:13:59;2.20;93.20
4376;DHT22;2202;50.866;12.750;2023-03-04T10:16:32;2.20;93.10
4376;DHT22;2202;50.866;12.750;2023-03-04T10:19:17;2.30;93.30
4376;DHT22;2202;50.866;12.750;2023-03-04T10:21:49;2.30;93.10
4376;DHT22;2202;50.866;12.750;2023-03-04T10:24:19;2.40;92.90
4376;DHT22;2202;50.866;12.750;2023-03-04T10:26:52;2.50;93.10
4376;DHT22;2202;50.866;12.750;2023-03-04T10:29:21;2.60;92.20
4376;DHT22;2202;50.866;12.750;2023-03-04T10:31:49;2.60;92.10
4376;DHT22;2202;50.866;12.750;2023-03-04T10:34:17;2.50;92.20
4376;DHT22;2202;50.866;12.750;2023-03-04T10:36:54;2.50;92.20
4376;DHT22;2202;50.866;12.750;2023-03-04T10:39:25;2.50;91.90
4376;DHT22;2202;50.866;12.750;2023-03-04T10:41:59;2.30;91.80
4376;DHT22;2202;50.866;12.750;2023-03-04T10:44:26;2.40;92.50
4376;DHT22;2202;50.866;12.750;2023-03-04T10:46:55;2.60;92.10
4376;DHT22;2202;50.866;12.750;2023-03-04T10:49:23;2.60;91.60
4376;DHT22;2202;50.866;12.750;2023-03-04T10:51:53;2.60;91.60
4376;DHT22;2202;50.866;12.750;2023-03-04T10:54:26;2.50;91.40
4376;DHT22;2202;50.866;12.750;2023-03-04T10:57:04;2.50;92.00
4376;DHT22;2202;50.866;12.750;2023-03-04T10:59:50;2.60;92.00
4376;DHT22;2202;50.866;12.750;2023-03-04T11:02:23;2.70;91.10
4376;DHT22;2202;50.866;12.750;2023-03-04T11:04:54;2.60;91.20
4376;DHT22;2202;50.866;12.750;2023-03-04T11:07:23;2.60;91.40
4376;DHT22;2202;50.866;12.750;2023-03-04T11:09:51;2.70;91.10
4376;DHT22;2202;50.866;12.750;2023-03-04T11:12:20;2.80;91.20
4376;DHT22;2202;50.866;12.750;2023-03-04T11:14:49;2.80;91.10
4376;DHT22;2202;50.866;12.750;2023-03-04T11:17:22;2.90;91.00
4376;DHT22;2202;50.866;12.750;2023-03-04T11:19:53;2.90;91.00
4376;DHT22;2202;50.866;12.750;2023-03-04T11:22:22;3.00;91.30
4376;DHT22;2202;50.866;12.750;2023-03-04T11:24:56;3.00;90.90
4376;DHT22;2202;50.866;12.750;2023-03-04T11:27:29;2.90;91.30
4376;DHT22;2202;50.866;12.750;2023-03-04T11:30:23;2.90;91.20
4376;DHT22;2202;50.866;12.750;2023-03-04T11:32:53;3.00;91.40
4376;DHT22;2202;50.866;12.750;2023-03-04T11:35:26;3.00;91.20
4376;DHT22;2202;50.866;12.750;2023-03-04T11:37:59;2.90;91.20
4376;DHT22;2202;50.866;12.750;2023-03-04T11:40:34;2.90;91.30
4376;DHT22;2202;50.866;12.750;2023-03-04T11:43:06;3.10;91.40
4376;DHT22;2202;50.866;12.750;2023-03-04T11:45:59;3.10;91.00
4376;DHT22;2202;50.866;12.750;2023-03-04T11:48:38;3.30;90.90
4376;DHT22;2202;50.866;12.750;2023-03-04T11:51:12;3.30;90.60
4376;DHT22;2202;50.866;12.750;2023-03-04T11:53:50;3.40;90.50
4376;DHT22;2202;50.866;12.750;2023-03-04T11:56:29;3.40;89.60
4376;DHT22;2202;50.866;12.750;2023-03-04T12:02:15;3.40;89.60
4376;DHT22;2202;50.866;12.750;2023-03-04T12:05:21;3.50;88.80
4376;DHT22;2202;50.866;12.750;2023-03-04T12:08:12;3.50;88.60
4376;DHT22;2202;50.866;12.750;2023-03-04T12:10:48;3.50;88.60
4376;DHT22;2202;50.866;12.750;2023-03-04T12:13:53;3.50;89.20
4376;DHT22;2202;50.866;12.750;2023-03-04T12:16:36;3.50;88.60
4376;DHT22;2202;50.866;12.750;2023-03-04T12:19:18;3.50;88.00
4376;DHT22;2202;50.866;12.750;2023-03-04T12:22:01;3.50;88.80
4376;DHT22;2202;50.866;12.750;2023-03-04T12:25:14;3.60;88.80
4376;DHT22;2202;50.866;12.750;2023-03-04T12:27:50;3.60;88.00
4376;DHT22;2202;50.866;12.750;2023-03-04T12:30:33;3.60;88.20
4376;DHT22;2202;50.866;12.750;2023-03-04T12:33:09;3.60;88.60
4376;DHT22;2202;50.866;12.750;2023-03-04T12:35:40;3.60;88.80
4376;DHT22;2202;50.866;12.750;2023-03-04T12:38:28;3.70;88.40
4376;DHT22;2202;50.866;12.750;2023-03-04T12:41:06;3.80;87.80
4376;DHT22;2202;50.866;12.750;2023-03-04T12:43:44;3.70;88.40
4376;DHT22;2202;50.866;12.750;2023-03-04T12:46:25;3.80;88.60
4376;DHT22;2202;50.866;12.750;2023-03-04T12:49:08;3.90;87.80
4376;DHT22;2202;50.866;12.750;2023-03-04T12:51:48;3.80;87.60
4376;DHT22;2202;50.866;12.750;2023-03-04T12:54:24;3.80;88.00
4376;DHT22;2202;50.866;12.750;2023-03-04T12:56:59;3.80;87.60
4376;DHT22;2202;50.866;12.750;2023-03-04T12:59:32;3.80;87.80
4376;DHT22;2202;50.866;12.750;2023-03-04T13:04:58;3.90;87.60
4376;DHT22;2202;50.866;12.750;2023-03-04T13:07:36;3.90;87.60
4376;DHT22;2202;50.866;12.750;2023-03-04T13:10:10;3.90;88.20
4376;DHT22;2202;50.866;12.750;2023-03-04T13:12:48;3.90;88.60
4376;DHT22;2202;50.866;12.750;2023-03-04T13:15:32;3.90;89.20
4376;DHT22;2202;50.866;12.750;2023-03-04T13:18:02;4.00;88.40
4376;DHT22;2202;50.866;12.750;2023-03-04T13:20:37;4.00;88.20
4376;DHT22;2202;50.866;12.750;2023-03-04T13:23:23;4.00;88.40
4376;DHT22;2202;50.866;12.750;2023-03-04T13:26:15;4.00;88.60
4376;DHT22;2202;50.866;12.750;2023-03-04T13:28:44;4.10;88.60
4376;DHT22;2202;50.866;12.750;2023-03-04T13:31:14;4.00;87.60
4376;DHT22;2202;50.866;12.750;2023-03-04T13:34:03;4.10;87.20
4376;DHT22;2202;50.866;12.750;2023-03-04T13:39:26;4.20;86.80
4376;DHT22;2202;50.866;12.750;2023-03-04T13:41:54;4.20;87.40
4376;DHT22;2202;50.866;12.750;2023-03-04T13:47:31;4.10;86.60
4376;DHT22;2202;50.866;12.750;2023-03-04T13:50:29;4.20;86.80
4376;DHT22;2202;50.866;12.750;2023-03-04T13:53:27;4.10;86.80
4376;DHT22;2202;50.866;12.750;2023-03-04T13:56:06;4.20;86.40
4376;DHT22;2202;50.866;12.750;2023-03-04T13:58:34;4.20;86.80
4376;DHT22;2202;50.866;12.750;2023-03-04T14:01:02;4.20;86.80
4376;DHT22;2202;50.866;12.750;2023-03-04T14:03:31;4.30;86.00
4376;DHT22;2202;50.866;12.750;2023-03-04T14:06:19;4.20;86.40
4376;DHT22;2202;50.866;12.750;2023-03-04T14:08:47;4.30;86.20
4376;DHT22;2202;50.866;12.750;2023-03-04T14:11:16;4.40;86.20
4376;DHT22;2202;50.866;12.750;2023-03-04T14:13:45;4.30;85.80
4376;DHT22;2202;50.866;12.750;2023-03-04T14:16:18;4.30;85.60
4376;DHT22;2202;50.866;12.750;2023-03-04T14:18:54;4.40;85.40
4376;DHT22;2202;50.866;12.750;2023-03-04T14:21:23;4.40;85.40
4376;DHT22;2202;50.866;12.750;2023-03-04T14:24:03;4.40;85.40
4376;DHT22;2202;50.866;12.750;2023-03-04T14:26:30;4.50;85.80
4376;DHT22;2202;50.866;12.750;2023-03-04T14:28:57;4.50;86.00
4376;DHT22;2202;50.866;12.750;2023-03-04T14:31:29;4.40;85.80
4376;DHT22;2202;50.866;12.750;2023-03-04T14:33:57;4.40;85.60
4376;DHT22;2202;50.866;12.750;2023-03-04T14:36:30;4.40;85.60
4376;DHT22;2202;50.866;12.750;2023-03-04T14:38:59;4.40;86.40
4376;DHT22;2202;50.866;12.750;2023-03-04T14:41:29;4.40;86.40
4376;DHT22;2202;50.866;12.750;2023-03-04T14:44:07;4.30;86.20
4376;DHT22;2202;50.866;12.750;2023-03-04T14:46:38;4.30;86.00
4376;DHT22;2202;50.866;12.750;2023-03-04T14:49:10;4.20;87.00
4376;DHT22;2202;50.866;12.750;2023-03-04T14:51:43;4.10;88.00
4376;DHT22;2202;50.866;12.750;2023-03-04T14:54:26;4.10;88.40
4376;DHT22;2202;50.866;12.750;2023-03-04T14:56:53;4.10;89.40
4376;DHT22;2202;50.866;12.750;2023-03-04T14:59:27;4.10;90.00
4376;DHT22;2202;50.866;12.750;2023-03-04T15:02:12;4.00;90.70
4376;DHT22;2202;50.866;12.750;2023-03-04T15:04:42;3.90;91.60
4376;DHT22;2202;50.866;12.750;2023-03-04T15:07:14;3.80;92.30
4376;DHT22;2202;50.866;12.750;2023-03-04T15:09:49;3.80;92.80
4376;DHT22;2202;50.866;12.750;2023-03-04T15:12:22;3.80;93.00
4376;DHT22;2202;50.866;12.750;2023-03-04T15:14:51;3.80;93.00
4376;DHT22;2202;50.866;12.750;2023-03-04T15:17:23;3.80;93.40
4376;DHT22;2202;50.866;12.750;2023-03-04T15:19:58;3.90;93.60
4376;DHT22;2202;50.866;12.750;2023-03-04T15:22:26;3.90;93.70
4376;DHT22;2202;50.866;12.750;2023-03-04T15:24:54;3.80;93.80
4376;DHT22;2202;50.866;12.750;2023-03-04T15:27:22;3.80;94.30
4376;DHT22;2202;50.866;12.750;2023-03-04T15:29:50;3.80;93.90
4376;DHT22;2202;50.866;12.750;2023-03-04T15:32:21;3.80;94.00
4376;DHT22;2202;50.866;12.750;2023-03-04T15:34:48;3.80;94.30
4376;DHT22;2202;50.866;12.750;2023-03-04T15:37:19;3.70;94.30
4376;DHT22;2202;50.866;12.750;2023-03-04T15:39:48;3.50;94.50
4376;DHT22;2202;50.866;12.750;2023-03-04T15:42:15;3.40;95.20
4376;DHT22;2202;50.866;12.750;2023-03-04T15:44:41;3.30;96.10
4376;DHT22;2202;50.866;12.750;2023-03-04T15:47:09;3.30;96.40
4376;DHT22;2202;50.866;12.750;2023-03-04T15:49:38;3.20;96.60
4376;DHT22;2202;50.866;12.750;2023-03-04T15:52:06;3.20;96.80
4376;DHT22;2202;50.866;12.750;2023-03-04T15:54:33;3.20;96.80
4376;DHT22;2202;50.866;12.750;2023-03-04T15:57:04;3.20;96.80
4376;DHT22;2202;50.866;12.750;2023-03-04T15:59:34;3.20;97.00
4376;DHT22;2202;50.866;12.750;2023-03-04T16:02:01;3.10;97.50
4376;DHT22;2202;50.866;12.750;2023-03-04T16:04:28;3.10;97.70
4376;DHT22;2202;50.866;12.750;2023-03-04T16:06:54;3.10;97.70
4376;DHT22;2202;50.866;12.750;2023-03-04T16:09:23;3.10;97.70
4376;DHT22;2202;50.866;12.750;2023-03-04T16:11:51;3.00;97.60
4376;DHT22;2202;50.866;12.750;2023-03-04T16:14:22;3.00;97.90
4376;DHT22;2202;50.866;12.750;2023-03-04T16:16:49;3.00;98.10
4376;DHT22;2202;50.866;12.750;2023-03-04T16:19:16;3.00;98.20
4376;DHT22;2202;50.866;12.750;2023-03-04T16:21:43;3.00;98.30
4376;DHT22;2202;50.866;12.750;2023-03-04T16:24:15;3.10;98.30
4376;DHT22;2202;50.866;12.750;2023-03-04T16:26:43;3.00;98.30